Portada
METAR-TAF:

METAR-TAF

Aeroports :

Chlef, Algèria

latitud: 36-13N, longitud: 001-20E, altitud: 143 m

Observació

L'informe es va fer fa 1 hora i 0 minuts, a les 22:00 UTC
Vent 9 kt del Est/Nord-Est
Temperatura 20°C
Humitat 53%
Pressió 1018 hPa
Visibilitat 10 km o més
sense núvols per sota de 1500 mi sense presència de cumulonimbus.

METAR: DAOI 122200Z 06009KT CAVOK 20/10 Q1018

Hora: 00:00 (23:00 UTC)

Pronòstic

L'informe es va fer fa 6 hores i 0 minuts, a les 17:00 UTC
Pronòstic vàlid del 12 a les 18 UTC al 13 a les 18 UTC
Vent 10 kt del Est/Nord-Est
Visibilitat 10 km o més
sense núvols per sota de 1500 mi sense presència de cumulonimbus.
Evolucionant progressivament
l' 12 a les 20 UTC al 12 a les 23 UTC
Vent 2 kt amb direcció variable
Evolucionant progressivament
l' 13 a les 12 UTC al 13 a les 15 UTC
Vent 12 kt del Est/Nord-Est

TAF: DAOI 121700Z 1218/1318 06010KT CAVOK BECMG 1220/1223 VRB02KT BECMG 1312/1315 06012KT

Observacions i pronòstics meteorològics de més de 4000 aeroports (METAR i TAF).

Les estacions disponibles són els punts grocs i vermells al mapa.

Posi el ratolí al punt desitjat per veure el nom de l'estació.

Feu clic per veure les observacions i els pronòstics meteorològics.

Per canviar el mapa: feu clic els botons verds amb una creu de color negre per apropar; al botó verd amb un guió per allunyar la imatge; o en les fletxes verdes per a mapes adjacents.


METAR-TAF: